createdAt,value
2022-10-05T00:01:29.628Z,12.25
2022-10-05T00:06:30.457Z,9.93
2022-10-05T00:11:31.262Z,9.32
2022-10-05T00:16:34.154Z,12.40
2022-10-05T00:21:35.012Z,8.85
2022-10-05T00:26:35.798Z,9.77
2022-10-05T00:31:36.664Z,12.57
2022-10-05T00:36:38.599Z,22.65
2022-10-05T00:44:35.928Z,16.65
2022-10-05T00:50:06.496Z,15.80
2022-10-05T01:02:03.949Z,10.13
2022-10-05T01:15:45.489Z,20.23
2022-10-05T01:21:05.382Z,11.02
2022-10-05T01:27:25.505Z,15.13
2022-10-05T01:32:37.707Z,12.20
2022-10-05T01:39:29.372Z,13.20
2022-10-05T01:44:35.853Z,18.37
2022-10-05T01:49:59.861Z,15.35
2022-10-05T01:55:34.664Z,14.35
2022-10-05T02:00:54.529Z,16.30
2022-10-05T02:06:03.976Z,20.00
2022-10-05T02:11:07.560Z,14.60
2022-10-05T02:16:34.303Z,14.00
2022-10-05T02:21:36.157Z,19.27
2022-10-05T02:26:39.787Z,17.60
2022-10-05T02:31:52.410Z,18.95
2022-10-05T02:38:10.889Z,20.42
2022-10-05T02:43:46.790Z,19.67
2022-10-05T02:54:58.805Z,16.75
2022-10-05T03:00:22.511Z,17.23
2022-10-05T03:05:30.054Z,23.23
2022-10-05T03:10:42.717Z,20.20
2022-10-05T03:16:20.068Z,21.77
2022-10-05T03:23:14.160Z,29.30
2022-10-05T03:31:51.126Z,28.77
2022-10-05T03:37:05.865Z,32.70
2022-10-05T03:42:29.023Z,22.40
2022-10-05T03:48:05.019Z,25.95
2022-10-05T03:53:19.063Z,23.08
2022-10-05T03:58:32.616Z,24.37
2022-10-05T04:03:41.088Z,23.77
2022-10-05T04:09:02.900Z,26.70
2022-10-05T04:14:15.353Z,25.27
2022-10-05T04:19:31.317Z,23.90
2022-10-05T04:24:57.664Z,24.27
2022-10-05T04:30:12.083Z,35.65
2022-10-05T04:37:16.837Z,34.58
2022-10-05T04:43:35.882Z,28.20
2022-10-05T04:55:16.600Z,45.75
2022-10-05T05:00:42.284Z,26.87
2022-10-05T05:08:58.757Z,29.60
2022-10-05T05:14:26.326Z,29.95
2022-10-05T05:20:42.469Z,24.77
2022-10-05T05:25:56.553Z,23.17
2022-10-05T05:31:30.440Z,26.10
2022-10-05T05:39:48.850Z,24.65
2022-10-05T05:44:54.398Z,25.90
2022-10-05T05:51:37.761Z,20.95
2022-10-05T05:56:45.630Z,23.38
2022-10-05T06:01:52.082Z,27.42
2022-10-05T06:06:57.329Z,134.18
2022-10-05T06:12:12.777Z,135.15
2022-10-05T06:17:43.422Z,39.65
2022-10-05T06:22:46.481Z,43.95
2022-10-05T06:28:56.080Z,51.20
2022-10-05T06:34:33.207Z,51.88
2022-10-05T06:40:14.515Z,60.17
2022-10-05T06:45:31.386Z,55.47
2022-10-05T06:50:55.256Z,57.53
2022-10-05T06:57:53.662Z,199.43
2022-10-05T07:03:15.154Z,58.65
2022-10-05T07:10:04.050Z,44.30
2022-10-05T07:16:46.213Z,221.87
2022-10-05T07:24:32.720Z,57.10
2022-10-05T07:30:01.611Z,43.55
2022-10-05T07:36:42.099Z,62.72
2022-10-05T07:42:03.753Z,124.70
2022-10-05T07:47:37.610Z,232.90
2022-10-05T07:52:42.513Z,173.10
2022-10-05T07:58:39.838Z,171.40
2022-10-05T08:04:05.237Z,102.40
2022-10-05T08:09:54.706Z,62.08
2022-10-05T08:15:19.882Z,37.10
2022-10-05T08:20:32.887Z,72.37
2022-10-05T08:26:10.935Z,39.08
2022-10-05T08:31:36.461Z,65.45
2022-10-05T08:37:14.967Z,523.05
2022-10-05T08:43:12.851Z,409.27
2022-10-05T08:48:46.976Z,66.20
2022-10-05T08:55:45.426Z,372.23
2022-10-05T09:09:13.418Z,253.60
2022-10-05T09:14:38.560Z,62.53
2022-10-05T09:22:38.990Z,52.62
2022-10-05T09:27:49.032Z,51.10
2022-10-05T09:33:36.307Z,46.08
2022-10-05T09:39:17.003Z,47.80
2022-10-05T09:45:21.526Z,41.67
2022-10-05T09:51:00.902Z,48.03
2022-10-05T09:59:59.818Z,38.35
2022-10-05T10:06:15.952Z,42.28
2022-10-05T10:14:12.781Z,45.67
2022-10-05T10:19:57.700Z,28.23
2022-10-05T10:25:34.667Z,25.58
2022-10-05T10:31:36.005Z,23.55
2022-10-05T10:38:33.183Z,24.45
2022-10-05T10:47:22.257Z,18.70
2022-10-05T10:53:04.096Z,21.55
2022-10-05T11:03:40.782Z,21.52
2022-10-05T11:10:27.912Z,10.65
2022-10-05T11:20:06.312Z,11.07
2022-10-05T11:25:54.142Z,12.40
2022-10-05T11:34:09.333Z,14.80
2022-10-05T11:39:37.345Z,11.73
2022-10-05T11:49:53.170Z,12.77
2022-10-05T11:55:19.568Z,14.13
2022-10-05T12:00:41.720Z,20.65
2022-10-05T12:07:42.124Z,18.12
2022-10-05T12:14:32.744Z,17.83
2022-10-05T12:21:03.834Z,18.15
2022-10-05T12:26:40.467Z,17.58
2022-10-05T12:31:57.107Z,14.60
2022-10-05T12:40:10.889Z,13.23
2022-10-05T12:50:02.541Z,11.63
2022-10-05T12:55:12.517Z,11.52
2022-10-05T13:00:22.629Z,10.30
2022-10-05T13:05:38.301Z,9.23
2022-10-05T13:11:05.462Z,12.13
2022-10-05T13:16:27.520Z,8.95
2022-10-05T13:21:47.911Z,15.82
2022-10-05T13:26:58.430Z,11.27
2022-10-05T13:32:05.581Z,15.75
2022-10-05T13:38:54.410Z,14.20
2022-10-05T13:44:41.968Z,12.93
2022-10-05T13:51:23.050Z,13.50
2022-10-05T13:56:38.820Z,11.05
2022-10-05T14:01:43.363Z,17.30
2022-10-05T14:06:44.859Z,15.57
2022-10-05T14:12:10.275Z,14.43
2022-10-05T14:17:33.649Z,11.43
2022-10-05T14:22:41.496Z,10.38
2022-10-05T14:28:30.021Z,7.90
2022-10-05T14:33:34.279Z,11.32
2022-10-05T14:38:51.557Z,11.52
2022-10-05T14:44:37.503Z,10.23
2022-10-05T14:49:48.732Z,10.40
2022-10-05T14:55:01.945Z,8.95
2022-10-05T15:00:11.925Z,8.80
2022-10-05T15:09:16.941Z,8.55
2022-10-05T15:14:23.157Z,6.80
2022-10-05T15:20:23.792Z,6.50
2022-10-05T15:26:02.374Z,9.38
2022-10-05T15:31:11.535Z,7.15
2022-10-05T15:36:22.283Z,6.07
2022-10-05T15:41:29.270Z,4.62
2022-10-05T15:46:56.610Z,4.47
2022-10-05T15:52:53.303Z,3.72
2022-10-05T15:58:19.858Z,6.62
2022-10-05T16:03:36.573Z,7.10
2022-10-05T16:08:54.952Z,6.10
2022-10-05T16:14:12.889Z,3.87
2022-10-05T16:21:24.485Z,4.07
2022-10-05T16:26:55.951Z,3.25
2022-10-05T16:32:06.419Z,6.30
2022-10-05T16:37:32.575Z,5.00
2022-10-05T16:46:03.309Z,6.00
2022-10-05T16:52:38.632Z,5.82
2022-10-05T16:57:45.837Z,3.37
2022-10-05T17:04:34.815Z,6.57
2022-10-05T17:14:41.186Z,6.22
2022-10-05T17:38:46.066Z,8.05
2022-10-05T17:44:19.911Z,11.23
2022-10-05T17:51:00.097Z,6.10
2022-10-05T17:56:03.904Z,3.50
2022-10-05T18:01:16.325Z,10.48
2022-10-05T18:06:31.122Z,5.68
2022-10-05T18:11:39.712Z,11.15
2022-10-05T18:17:02.715Z,8.20
2022-10-05T18:24:06.632Z,4.30
2022-10-05T18:30:02.568Z,6.37
2022-10-05T18:35:13.458Z,8.10
2022-10-05T18:41:45.958Z,5.85
2022-10-05T18:47:44.613Z,4.53
2022-10-05T18:53:06.950Z,6.50
2022-10-05T18:59:47.742Z,10.57
2022-10-05T19:06:38.069Z,7.47
2022-10-05T19:12:02.456Z,4.90
2022-10-05T19:18:07.917Z,6.32
2022-10-05T19:26:16.895Z,6.62
2022-10-05T19:33:00.110Z,6.40
2022-10-05T19:39:50.213Z,5.60
2022-10-05T19:45:32.657Z,8.45
2022-10-05T19:50:37.008Z,8.17
2022-10-05T19:55:44.932Z,8.05
2022-10-05T20:01:01.002Z,6.75
2022-10-05T20:06:04.779Z,5.12
2022-10-05T20:11:17.918Z,5.62
2022-10-05T20:21:59.121Z,6.75
2022-10-05T20:27:05.619Z,5.85
2022-10-05T20:32:12.247Z,7.12
2022-10-05T20:37:18.241Z,4.45
2022-10-05T20:42:20.445Z,6.47
2022-10-05T20:47:22.316Z,6.00
2022-10-05T20:52:23.356Z,5.30
2022-10-05T20:57:24.454Z,6.37
2022-10-05T21:02:25.462Z,6.95
2022-10-05T21:07:26.194Z,9.68
2022-10-05T21:12:26.988Z,17.50
2022-10-05T21:17:27.733Z,8.90
2022-10-05T21:22:28.669Z,8.32
2022-10-05T21:27:30.328Z,7.75
2022-10-05T21:32:31.151Z,4.22
2022-10-05T21:37:31.890Z,9.75
2022-10-05T21:42:32.889Z,10.02
2022-10-05T21:47:34.145Z,9.88
2022-10-05T21:52:35.518Z,9.05
2022-10-05T21:57:37.614Z,6.95
2022-10-05T22:02:38.751Z,9.67
2022-10-05T22:07:39.601Z,10.70
2022-10-05T22:12:45.510Z,15.25
2022-10-05T22:17:46.251Z,10.05
2022-10-05T22:22:47.166Z,8.88
2022-10-05T22:27:48.989Z,10.93
2022-10-05T22:32:49.776Z,6.22
2022-10-05T22:37:50.539Z,8.88
2022-10-05T22:42:52.499Z,9.35
2022-10-05T22:47:53.234Z,8.20
2022-10-05T22:52:54.106Z,9.35
2022-10-05T22:57:54.850Z,8.55
2022-10-05T23:02:55.933Z,7.75
2022-10-05T23:07:56.720Z,6.97
2022-10-05T23:13:00.769Z,8.75
2022-10-05T23:18:01.904Z,7.18
2022-10-05T23:23:02.717Z,7.07
2022-10-05T23:28:03.581Z,5.53
2022-10-05T23:33:04.439Z,7.65
2022-10-05T23:38:05.310Z,6.95
2022-10-05T23:43:06.432Z,13.23
2022-10-05T23:48:07.376Z,8.30
2022-10-05T23:53:08.172Z,8.95
2022-10-05T23:58:09.679Z,11.48
